Latest Weather Observations for Ferny Creek

IDV60901

Issued at 4:51 pm EDT Friday 6 March 2015 (issued every 10 minutes, with the page automatically refreshed every 10 minutes)

About weather observations | Map of Melbourne area stations | Latest observations for Melbourne area | Other Formats
Station Details ID: 086266 Name: FERNY CREEK Lat: -37.87 Lon: 145.35 Height: 512.9 m
Data from the previous 72 hours. | See also: Recent months at Ferny Creek
Date/Time
EDT
Tmp

°C
App
Tmp
°C
Dew
Point
°C
Rel
Hum
%
Delta-T

°C
Wind Press
QNH
hPa
Press
MSL
hPa
Rain
since
9 am
mm
Dir
 
Spd
km/h
Gust
km/h
Spd
kts
Gust
kts
06/04:30pm 14.8 14.0 11.6 81 1.8 W 7 17 4 9 1011.5 1010.3 3.2
06/04:00pm 14.3 13.2 11.8 85 1.4 WSW 9 26 5 14 1011.4 1010.2 3.2
06/03:30pm 14.5 13.3 11.7 83 1.5 W 9 22 5 12 1011.6 1010.4 3.2
06/03:00pm 14.7 13.6 12.0 84 1.5 WSW 9 17 5 9 1011.7 1010.5 3.2
06/02:30pm 14.3 13.3 12.3 88 1.1 W 9 20 5 11 1011.7 1010.5 3.2
06/02:00pm 14.0 13.1 12.6 91 0.8 WSW 9 17 5 9 1011.5 1010.3 3.2
06/01:30pm 13.6 12.8 12.8 95 0.4 W 9 32 5 17 1011.5 1010.3 3.2
06/01:00pm 13.0 12.4 12.2 95 0.4 W 7 22 4 12 1011.7 1010.5 3.0
06/12:30pm 13.0 12.9 12.1 94 0.5 W 4 11 2 6 1011.6 1010.4 1.4
06/12:00pm 12.8 12.3 12.0 95 0.4 W 6 9 3 5 1011.7 1010.5 1.4
06/11:30am 12.6 12.5 12.0 96 0.3 W 4 7 2 4 1011.5 1010.3 1.4
06/11:00am 12.4 11.6 11.8 96 0.3 W 7 20 4 11 1011.4 1010.2 1.4
06/10:30am 11.9 11.2 11.3 96 0.3 W 6 19 3 10 1011.2 1010.0 0.8
06/10:00am 11.5 10.7 10.9 96 0.3 W 6 15 3 8 1011.2 1010.0 0.2
06/09:30am 11.0 10.4 10.4 96 0.3 WNW 4 9 2 5 1011.0 1009.8 0.0
06/09:00am 10.5 9.3 9.7 95 0.4 WNW 6 15 3 8 1010.8 1009.6 3.6
06/08:30am 10.3 9.1 9.5 95 0.4 WNW 6 15 3 8 1010.4 1009.2 3.4
06/08:00am 10.2 9.6 9.0 92 0.6 W 2 7 1 4 1010.5 1009.3 3.0
06/07:30am 10.4 9.3 8.3 87 1.1 WSW 4 7 2 4 1010.3 1009.1 2.4
06/07:00am 10.0 8.7 7.8 86 1.1 WSW 4 22 2 12 1010.2 1009.0 2.4
06/06:30am 9.8 8.1 7.6 86 1.1 W 6 13 3 7 1010.1 1008.9 2.4
06/06:00am 9.9 8.1 7.2 83 1.3 WNW 6 13 3 7 1010.3 1009.1 2.4
06/05:30am 9.7 8.0 7.5 86 1.1 WNW 6 13 3 7 1010.4 1009.2 2.4
06/05:00am 10.0 8.0 7.1 82 1.4 W 7 17 4 9 1010.4 1009.2 2.4
06/04:30am 9.8 8.3 6.9 82 1.4 W 4 9 2 5 1011.0 1009.8 2.4
06/04:00am 9.5 8.0 6.6 82 1.4 WNW 4 13 2 7 1011.4 1010.2 2.4
06/03:30am 9.5 7.5 6.2 80 1.6 WNW 6 9 3 5 1011.8 1010.6 2.4
06/03:00am 9.6 7.5 6.0 78 1.7 W 6 15 3 8 1012.1 1010.9 2.4
06/02:30am 9.6 7.9 5.8 77 1.8 W 4 15 2 8 1012.8 1011.6 2.4
06/02:00am 9.7 7.6 5.7 76 1.9 WSW 6 17 3 9 1013.0 1011.8 2.4
06/01:30am 9.8 7.6 5.4 74 2.1 W 6 11 3 6 1013.3 1012.1 2.4
06/01:00am 9.9 7.7 5.3 73 2.2 W 6 13 3 7 1013.5 1012.3 2.4
06/12:30am 9.9 7.7 5.1 72 2.2 W 6 13 3 7 1013.8 1012.6 2.4
06/12:00am 9.8 7.9 5.0 72 2.2 W 4 17 2 9 1014.0 1012.8 2.4
 
Date/Time
EDT
Tmp

°C
App
Tmp
°C
Dew
Point
°C
Rel
Hum
%
Delta-T

°C
Wind Press
QNH
hPa
Press
MSL
hPa
Rain
since
9 am
mm
Dir
 
Spd
km/h
Gust
km/h
Spd
kts
Gust
kts
05/11:30pm 9.8 8.0 5.2 73 2.1 W 4 9 2 5 1014.2 1013.1 2.4
05/11:00pm 9.7 7.4 4.7 71 2.3 W 6 13 3 7 1014.5 1013.4 2.4
05/10:30pm 9.9 8.0 4.7 70 2.4 W 4 13 2 7 1014.6 1013.5 2.4
05/10:00pm 10.4 8.4 4.3 66 2.8 W 4 13 2 7 1014.9 1013.7 2.4
05/09:30pm 10.6 9.0 4.5 66 2.8 WNW 2 4 1 2 1015.1 1013.9 2.4
05/09:00pm 10.7 9.2 5.0 68 2.7 W 2 7 1 4 1015.0 1013.8 2.4
05/08:30pm 11.1 9.0 4.1 62 3.2 W 4 9 2 5 1015.0 1013.8 2.4
05/08:00pm 10.7 9.0 5.9 72 2.3 W 4 11 2 6 1015.0 1013.8 2.4
05/07:30pm 11.2 9.6 6.3 72 2.4 WSW 4 9 2 5 1015.2 1014.0 2.4
05/07:00pm 11.6 10.3 6.1 69 2.7 SW 2 11 1 6 1015.5 1014.3 2.4
05/06:30pm 12.2 10.2 6.3 67 2.9 WSW 6 17 3 9 1015.6 1014.4 2.4
05/06:00pm 12.5 10.3 6.1 65 3.1 WSW 7 20 4 11 1015.7 1014.5 2.4
05/05:30pm 12.9 10.7 6.0 63 3.4 WSW 7 22 4 12 1015.8 1014.7 2.4
05/05:00pm 13.2 10.8 5.4 59 3.7 WSW 7 20 4 11 1015.8 1014.7 2.4
05/04:30pm 14.5 12.5 6.3 58 4.1 W 6 13 3 7 1016.0 1014.9 2.4
05/04:00pm 13.9 11.6 5.5 57 4.1 SW 7 17 4 9 1016.3 1015.2 2.4
05/03:30pm 13.7 11.0 5.6 58 3.9 WSW 9 24 5 13 1016.7 1015.6 2.4
05/03:00pm 12.9 9.7 5.3 60 3.6 WSW 11 28 6 15 1016.7 1015.6 2.4
05/02:30pm 13.6 10.9 5.7 59 3.8 W 9 19 5 10 1016.7 1015.6 2.4
05/02:00pm 12.9 9.9 4.3 56 4.0 WSW 9 30 5 16 1017.0 1015.8 2.4
05/01:30pm 12.8 9.7 5.5 61 3.5 WSW 11 22 6 12 1017.1 1015.9 2.4
05/01:00pm 12.8 9.6 5.2 60 3.6 WSW 11 26 6 14 1017.2 1016.0 2.4
05/12:30pm 12.1 9.8 5.9 66 3.0 WSW 7 26 4 14 1017.6 1016.5 2.4
05/12:00pm 11.5 9.8 7.6 77 1.9 WSW 6 17 3 9 1017.5 1016.4 2.4
05/11:30am 10.2 8.6 8.1 87 1.0 WSW 6 17 3 9 1017.5 1016.4 2.4
05/11:00am 9.4 7.0 7.0 85 1.2 W 9 28 5 15 1017.2 1016.0 2.2
05/10:30am 8.6 6.8 7.1 90 0.7 WNW 6 20 3 11 1017.0 1015.8 2.0
05/10:00am 8.5 6.2 5.6 82 1.3 WSW 7 15 4 8 1016.7 1015.6 1.2
05/09:30am 7.9 4.8 5.7 86 1.0 W 11 35 6 19 1016.4 1015.3 0.8
05/09:00am 8.3 5.5 5.1 80 1.5 WSW 9 20 5 11 1015.8 1014.7 3.6
05/08:30am 8.3 5.6 5.4 82 1.3 W 9 26 5 14 1015.6 1014.4 3.4
05/08:00am 8.3 5.9 5.2 81 1.4 WSW 7 17 4 9 1015.0 1013.8 3.4
05/07:30am 7.7 5.5 5.2 84 1.1 WNW 6 15 3 8 1014.2 1013.1 3.4
05/07:00am 7.8 5.2 4.2 78 1.6 W 7 22 4 12 1014.2 1013.1 3.2
05/06:30am 8.2 6.3 5.0 80 1.5 W 4 13 2 7 1013.6 1012.4 3.2
05/06:00am 8.6 6.1 4.8 77 1.7 WNW 7 20 4 11 1013.3 1012.1 3.2
05/05:30am 8.7 6.0 5.4 80 1.5 W 9 22 5 12 1012.7 1011.5 3.2
05/05:00am 8.9 6.0 4.9 76 1.8 W 9 17 5 9 1012.1 1010.9 3.2
05/04:30am 9.2 6.9 7.5 89 0.8 W 9 22 5 12 1011.9 1010.7 3.2
05/04:00am 10.1 8.0 8.4 89 0.9 W 9 32 5 17 1011.2 1010.0 2.8
05/03:30am 11.1 9.1 10.3 95 0.4 W 11 32 6 17 1010.5 1009.3 2.8
05/03:00am 11.6 9.8 10.7 94 0.5 W 11 20 6 11 1009.9 1008.7 2.4
05/02:30am 13.3 11.9 9.5 78 2.0 WSW 7 20 4 11 1009.7 1008.5 0.0
05/02:00am 13.3 12.1 9.4 77 2.0 W 6 13 3 7 1010.1 1008.9 0.0
05/01:30am 14.1 12.5 8.1 67 3.1 WSW 6 15 3 8 1010.0 1008.8 0.0
05/01:00am 14.2 12.4 7.9 66 3.2 W 7 19 4 10 1010.1 1008.9 0.0
05/12:30am 14.5 12.8 8.5 67 3.1 WSW 7 15 4 8 1010.2 1009.0 0.0
05/12:00am 14.3 12.9 8.9 70 2.8 W 6 17 3 9 1010.0 1008.8 0.0
 
Date/Time
EDT
Tmp

°C
App
Tmp
°C
Dew
Point
°C
Rel
Hum
%
Delta-T

°C
Wind Press
QNH
hPa
Press
MSL
hPa
Rain
since
9 am
mm
Dir
 
Spd
km/h
Gust
km/h
Spd
kts
Gust
kts
04/11:30pm 14.2 13.2 9.0 71 2.7 WSW 4 11 2 6 1010.2 1009.0 0.0
04/11:00pm 14.6 14.1 9.4 71 2.7 WNW 2 6 1 3 1010.4 1009.2 0.0
04/10:30pm 15.0 14.0 8.9 67 3.2 SSW 4 9 2 5 1010.8 1009.6 0.0
04/10:00pm 15.6 14.7 9.3 66 3.3 WSW 4 9 2 5 1010.9 1009.7 0.0
04/09:30pm 14.4 14.3 9.4 72 2.6 CALM 0 7 0 4 1011.0 1009.8 0.0
04/09:00pm 14.2 13.8 9.8 75 2.3 SW 2 7 1 4 1010.8 1009.6 0.0
04/08:30pm 14.8 14.4 9.8 72 2.7 WSW 2 9 1 5 1010.8 1009.6 0.0
04/08:00pm 15.0 14.6 9.6 70 2.9 WSW 2 6 1 3 1011.1 1009.9 0.0
04/07:30pm 16.1 15.0 9.8 66 3.4 WSW 6 9 3 5 1011.1 1009.9 0.0
04/07:00pm 16.6 16.2 9.8 64 3.7 WSW 2 6 1 3 1011.3 1010.1 0.0
04/06:30pm 17.1 16.2 9.3 60 4.2 WSW 4 9 2 5 1011.4 1010.2 0.0
04/06:00pm 17.8 16.2 8.9 56 4.7 WSW 7 19 4 10 1011.5 1010.3 0.0
04/05:30pm 19.3 17.8 9.2 52 5.5 WSW 7 15 4 8 1011.7 1010.5 0.0
04/05:00pm 19.9 18.7 9.5 51 5.7 WSW 6 19 3 10 1011.8 1010.6 0.0
04/04:30pm 19.6 18.3 9.8 53 5.4 W 7 20 4 11 1011.9 1010.7 0.0
04/04:00pm 19.5 18.0 9.1 51 5.6 W 7 17 4 9 1012.3 1011.2 0.0
04/03:30pm 18.3 16.7 8.8 54 5.1 NW 7 15 4 8 1012.8 1011.6 0.0
04/03:00pm 18.5 17.1 9.0 54 5.1 W 6 11 3 6 1013.4 1012.2 0.0
04/02:30pm 18.2 16.7 9.3 56 4.8 WNW 7 17 4 9 1013.7 1012.5 0.0
04/02:00pm 17.2 15.5 7.5 53 5.0 WNW 6 19 3 10 1014.1 1013.0 0.0
04/01:30pm 17.9 16.4 9.3 57 4.6 WSW 7 13 4 7 1014.3 1013.2 0.0
04/01:00pm 16.3 14.8 8.5 60 4.1 WSW 6 19 3 10 1014.8 1013.6 0.0
04/12:30pm 16.0 14.8 9.4 65 3.5 W 6 13 3 7 1015.4 1014.2 0.0
04/12:00pm 14.9 13.3 8.6 66 3.3 SW 7 20 4 11 1015.7 1014.5 0.0
04/11:30am 15.2 14.0 9.6 69 3.0 SW 6 13 3 7 1015.9 1014.8 0.0
04/11:00am 15.3 14.3 9.0 66 3.3 WSW 4 11 2 6 1015.9 1014.8 0.0
04/10:30am 14.8 14.1 10.0 73 2.6 W 4 9 2 5 1015.8 1014.7 0.0
04/10:00am 13.7 12.5 9.7 77 2.1 NNW 6 15 3 8 1015.7 1014.5 0.0
04/09:30am 13.9 13.0 10.5 80 1.8 NW 6 13 3 7 1015.7 1014.5 0.0
04/09:00am 12.9 12.7 10.6 86 1.2 WNW 2 6 1 3 1015.9 1014.8 0.0
04/08:30am 11.4 10.3 9.8 90 0.8 NW 6 11 3 6 1015.8 1014.7 0.0
04/08:00am 11.3 11.4 10.2 93 0.6 CALM 0 0 0 0 1015.6 1014.4 0.0
04/07:30am 10.9 10.9 9.8 93 0.6 CALM 0 0 0 0 1015.2 1014.0 0.0
04/07:00am 10.9 10.1 9.8 93 0.6 NW 4 6 2 3 1015.0 1013.8 0.0
04/06:30am 11.1 10.4 10.0 93 0.6 NW 4 6 2 3 1015.2 1014.0 0.0
04/06:00am 11.3 11.5 10.4 94 0.5 CALM 0 0 0 0 1015.0 1013.8 0.0
04/05:30am 11.0 11.1 10.1 94 0.5 CALM 0 0 0 0 1015.1 1013.9 0.0
04/05:00am 11.0 11.1 10.1 94 0.5 CALM 0 0 0 0 1015.2 1014.0 0.0
04/04:30am 10.8 10.9 10.0 95 0.4 CALM 0 2 0 1 1015.3 1014.1 0.0
04/04:00am 10.6 10.6 9.7 94 0.5 CALM 0 0 0 0 1015.1 1013.9 0.0
04/03:30am 10.4 10.3 9.3 93 0.6 CALM 0 0 0 0 1015.4 1014.2 0.0
04/03:00am 11.3 11.3 9.9 91 0.7 CALM 0 0 0 0 1015.7 1014.5 0.0
04/02:30am 11.5 11.6 10.2 92 0.7 CALM 0 2 0 1 1016.0 1014.9 0.0
04/02:00am 11.5 11.7 10.4 93 0.6 CALM 0 4 0 2 1016.2 1015.1 0.0
04/01:30am 10.9 10.9 9.7 92 0.6 CALM 0 4 0 2 1016.4 1015.3 0.0
04/01:00am 11.1 11.1 9.7 91 0.7 CALM 0 4 0 2 1016.6 1015.5 0.0
04/12:30am 11.4 11.0 9.7 89 0.9 SE 2 6 1 3 1016.9 1015.7 0.0
04/12:00am 11.5 11.1 9.8 89 0.9 SSE 2 6 1 3 1017.1 1015.9 0.0
 
Date/Time
EDT
Tmp

°C
App
Tmp
°C
Dew
Point
°C
Rel
Hum
%
Delta-T

°C
Wind Press
QNH
hPa
Press
MSL
hPa
Rain
since
9 am
mm
Dir
 
Spd
km/h
Gust
km/h
Spd
kts
Gust
kts
03/11:30pm 11.6 10.8 9.5 87 1.1 SE 4 6 2 3 1017.3 1016.1 0.0
03/11:00pm 11.9 10.7 9.5 85 1.2 SE 6 11 3 6 1017.4 1016.2 0.0
03/10:30pm 12.0 11.0 9.0 82 1.5 SE 4 7 2 4 1017.5 1016.4 0.0
03/10:00pm 12.3 11.2 8.6 78 1.9 SSE 4 6 2 3 1017.5 1016.4 0.0
03/09:30pm 12.9 11.7 8.2 73 2.4 SE 4 11 2 6 1017.3 1016.1 0.0
03/09:00pm 13.2 12.2 8.9 75 2.2 SE 4 7 2 4 1017.1 1015.9 0.0
03/08:30pm 13.8 13.3 9.5 75 2.3 SE 2 6 1 3 1016.7 1015.6 0.0
03/08:00pm 14.3 14.2 9.3 72 2.6 CALM 0 2 0 1 1016.5 1015.4 0.0
03/07:30pm 15.3 15.3 9.7 69 3.0 CALM 0 2 0 1 1016.4 1015.3 0.0
03/07:00pm 16.0 15.1 9.4 65 3.5 SSE 4 9 2 5 1016.3 1015.2 0.0
03/06:30pm 16.6 15.8 9.5 63 3.8 S 4 11 2 6 1016.2 1015.1 0.0
03/06:00pm 17.3 16.2 10.0 62 4.0 ESE 6 13 3 7 1016.2 1015.1 0.0
03/05:30pm 18.6 17.6 10.2 58 4.6 S 6 15 3 8 1016.2 1015.1 0.0
03/05:00pm 19.1 17.6 10.6 58 4.7 SSW 9 17 5 9 1016.3 1015.2 0.0

Latest Capital City Observations: Canberra | Sydney | Melbourne | Brisbane | Adelaide | Perth | Hobart | Darwin

Other Formats:

Comma delimited format used in spreadsheet applications
http://www.bom.gov.au/fwo/IDV60901/IDV60901.94872.axf

JavaScript Object Notation format (JSON) in row-major order
http://www.bom.gov.au/fwo/IDV60901/IDV60901.94872.json